Time;durP1;ratioP1;P1;durP2;ratioP2;P2;SDS_P1;SDS_P2;PMS_P1;PMS_P2;Temp;Humidity;BMP_temperature;BMP_pressure;BME280_temperature;BME280_humidity;BME280_pressure;Samples;Min_cycle;Max_cycle;Signal;HPM_P1;HPM_P2
2023/03/09 00:00:29;;;;;;;;;;;;;;;7.17;65.40;91077.72;2055442;70;20130;-74
2023/03/09 00:02:54;;;;;;;;;;;;;;;7.09;66.63;91078.03;2055638;70;20097;-74
2023/03/09 00:05:20;;;;;;;;;;;;;;;7.34;66.11;91071.53;2055676;70;20090;-74
2023/03/09 00:07:46;;;;;;;;;;;;;;;6.87;68.35;91077.69;2068677;69;20494;-73
2023/03/09 00:10:12;;;;;;;;;;;;;;;7.17;67.37;91074.91;2055817;70;20561;-74
2023/03/09 00:12:37;;;;;;;;;;;;;;;7.27;67.24;91078.91;2068703;69;20046;-74
2023/03/09 00:15:04;;;;;;;;;;;;;;;7.34;66.85;91093.91;2055656;69;20057;-74
2023/03/09 00:17:29;;;;;;;;;;;;;;;7.29;67.89;91086.69;2055508;69;20070;-75
2023/03/09 00:20:00;;;;;;;;;;;;;;;7.33;68.45;91101.59;2055791;70;20066;-76
2023/03/09 00:22:26;;;;;;;;;;;;;;;7.32;70.30;91099.41;2055662;69;20224;-76
2023/03/09 00:24:53;;;;;;;;;;;;;;;7.11;69.53;91118.06;2055886;70;20046;-74
2023/03/09 00:27:19;;;;;;;;;;;;;;;7.07;69.94;91119.94;2068650;69;20481;-75
2023/03/09 00:29:44;;;;;;;;;;;;;;;6.84;70.96;91132.13;2055686;69;20054;-73
2023/03/09 00:32:10;;;;;;;;;;;;;;;7.00;70.33;91134.97;2068651;69;20145;-75
2023/03/09 00:34:35;;;;;;;;;;;;;;;7.12;70.14;91143.97;2055735;69;20042;-73
2023/03/09 00:37:03;;;;;;;;;;;;;;;7.07;71.11;91148.63;2068511;69;20512;-74
2023/03/09 00:39:29;;;;;;;;;;;;;;;7.12;71.55;91147.47;2068597;69;20476;-74
2023/03/09 00:41:55;;;;;;;;;;;;;;;7.20;71.93;91140.84;2068774;69;20049;-73
2023/03/09 00:44:20;;;;;;;;;;;;;;;7.18;72.00;91129.53;2055626;69;20138;-75
2023/03/09 00:46:46;;;;;;;;;;;;;;;7.02;73.00;91129.50;2055608;69;20047;-75
2023/03/09 00:49:13;;;;;;;;;;;;;;;7.28;71.72;91127.22;2068571;69;20057;-75
2023/03/09 00:51:41;;;;;;;;;;;;;;;7.31;70.76;91137.16;2068646;69;20050;-76
2023/03/09 00:54:08;;;;;;;;;;;;;;;7.33;71.61;91120.44;2068646;69;20507;-75
2023/03/09 00:56:33;;;;;;;;;;;;;;;7.40;72.11;91125.00;2055542;70;20562;-76
2023/03/09 00:58:59;;;;;;;;;;;;;;;7.44;73.02;91149.66;2068575;69;20155;-76
2023/03/09 01:01:25;;;;;;;;;;;;;;;7.31;72.82;91151.88;2055621;70;20058;-75
2023/03/09 01:03:51;;;;;;;;;;;;;;;7.09;73.93;91139.59;2068397;69;20072;-76
2023/03/09 01:06:17;;;;;;;;;;;;;;;7.27;73.06;91157.28;2055591;69;20054;-75
2023/03/09 01:08:45;;;;;;;;;;;;;;;7.37;72.69;91163.34;2055679;70;20477;-74
2023/03/09 01:11:12;;;;;;;;;;;;;;;7.36;73.29;91145.09;2068613;69;20062;-74
2023/03/09 01:13:37;;;;;;;;;;;;;;;7.03;76.02;91108.53;2055615;70;20066;-75
2023/03/09 01:16:03;;;;;;;;;;;;;;;7.31;73.54;91115.47;2065776;69;20046;-75
2023/03/09 01:18:29;;;;;;;;;;;;;;;7.31;73.31;91115.47;2068541;69;20553;-75
2023/03/09 01:20:54;;;;;;;;;;;;;;;7.32;74.05;91102.22;2055611;70;20145;-76
2023/03/09 01:23:20;;;;;;;;;;;;;;;7.31;74.63;91101.50;2065870;69;20053;-74
2023/03/09 01:25:45;;;;;;;;;;;;;;;7.32;75.99;91108.53;2055269;69;20061;-76
2023/03/09 01:28:11;;;;;;;;;;;;;;;6.85;77.43;91133.56;2068637;69;20050;-77
2023/03/09 01:30:37;;;;;;;;;;;;;;;6.90;77.50;91126.09;2055566;69;20050;-78
2023/03/09 01:33:03;;;;;;;;;;;;;;;7.21;75.34;91108.69;2068447;69;20054;-76
2023/03/09 01:35:28;;;;;;;;;;;;;;;7.29;74.43;91104.19;2062444;69;20052;-77
2023/03/09 01:37:54;;;;;;;;;;;;;;;7.34;74.36;91105.13;2071876;69;20173;-77
2023/03/09 01:40:21;;;;;;;;;;;;;;;7.33;75.15;91092.44;2071804;69;20076;-75
2023/03/09 01:42:54;;;;;;;;;;;;;;;6.83;77.87;91103.44;2075208;69;20048;-76
2023/03/09 01:45:20;;;;;;;;;;;;;;;7.10;76.45;91105.41;2075200;69;20164;-73
2023/03/09 01:47:46;;;;;;;;;;;;;;;7.02;75.92;91095.91;2071521;69;20095;-75
2023/03/09 01:50:13;;;;;;;;;;;;;;;6.90;76.12;91084.84;2072043;69;20357;-75
2023/03/09 01:52:39;;;;;;;;;;;;;;;6.95;77.70;91099.75;2071895;69;20049;-75
2023/03/09 01:55:08;;;;;;;;;;;;;;;7.24;74.90;91124.97;2075118;69;20052;-75
2023/03/09 01:57:55;;;;;;;;;;;;;;;7.21;75.04;91103.81;2071614;69;20561;-75
2023/03/09 02:00:24;;;;;;;;;;;;;;;7.25;75.64;91101.22;2071664;69;20056;-75
2023/03/09 02:03:10;;;;;;;;;;;;;;;7.29;76.11;91106.28;2069062;69;20483;-76
2023/03/09 02:05:40;;;;;;;;;;;;;;;7.36;75.27;91119.91;2071769;69;20125;-76
2023/03/09 02:08:08;;;;;;;;;;;;;;;7.34;76.66;91105.84;2071808;69;20048;-75
2023/03/09 02:10:37;;;;;;;;;;;;;;;7.45;74.71;91083.91;2071585;69;20411;-75
2023/03/09 02:13:07;;;;;;;;;;;;;;;7.42;76.60;91068.34;2071784;69;20048;-75
2023/03/09 02:15:33;;;;;;;;;;;;;;;7.38;76.65;91032.53;2071638;69;20059;-76
2023/03/09 02:17:59;;;;;;;;;;;;;;;7.32;77.44;91030.16;2074842;69;20068;-76
2023/03/09 02:20:31;;;;;;;;;;;;;;;7.34;77.58;91007.16;2071653;69;20048;-75
2023/03/09 02:22:56;;;;;;;;;;;;;;;6.86;79.36;91023.13;2071444;69;20103;-74
2023/03/09 02:25:25;;;;;;;;;;;;;;;6.62;81.37;91031.81;2068884;69;20056;-75
2023/03/09 02:27:52;;;;;;;;;;;;;;;6.97;78.29;91039.03;2075013;69;20061;-76
2023/03/09 02:30:17;;;;;;;;;;;;;;;7.08;77.66;91059.81;2071639;69;20055;-75
2023/03/09 02:32:43;;;;;;;;;;;;;;;7.11;76.48;91056.50;2071173;69;20477;-75
2023/03/09 02:35:10;;;;;;;;;;;;;;;7.11;77.11;91059.28;2071563;69;20532;-74
2023/03/09 02:37:39;;;;;;;;;;;;;;;7.22;76.44;91068.88;2071337;69;20472;-75
2023/03/09 02:40:15;;;;;;;;;;;;;;;7.28;76.41;91046.03;2071812;69;20060;-75
2023/03/09 02:42:45;;;;;;;;;;;;;;;7.34;75.94;91029.53;2071614;69;20060;-74
2023/03/09 02:45:12;;;;;;;;;;;;;;;7.37;76.45;91025.47;2071531;69;20055;-75
2023/03/09 02:47:38;;;;;;;;;;;;;;;6.89;77.84;91021.88;2068669;69;20163;-74
2023/03/09 02:50:06;;;;;;;;;;;;;;;6.59;79.36;91013.47;2068937;69;20218;-75
2023/03/09 02:52:31;;;;;;;;;;;;;;;6.45;81.31;91037.22;2071552;69;20059;-75
2023/03/09 02:54:57;;;;;;;;;;;;;;;6.70;81.20;91014.69;2071638;69;20044;-74
2023/03/09 02:57:23;;;;;;;;;;;;;;;6.96;79.25;91022.88;2071497;69;20480;-74
2023/03/09 02:59:49;;;;;;;;;;;;;;;6.97;79.05;91013.88;2074990;69;20155;-75
2023/03/09 03:02:14;;;;;;;;;;;;;;;7.11;78.06;91008.94;2071641;69;20431;-75
2023/03/09 03:04:40;;;;;;;;;;;;;;;7.26;76.51;91006.78;2071650;69;20080;-75
2023/03/09 03:07:05;;;;;;;;;;;;;;;7.29;76.37;91017.44;2071546;69;20045;-76
2023/03/09 03:09:32;;;;;;;;;;;;;;;7.10;77.20;91012.34;2075021;69;20048;-75
2023/03/09 03:11:57;;;;;;;;;;;;;;;7.07;78.27;91011.53;2075023;69;20059;-76
2023/03/09 03:14:25;;;;;;;;;;;;;;;7.08;77.25;91012.25;2071629;69;20113;-75
2023/03/09 03:16:50;;;;;;;;;;;;;;;6.78;78.65;91017.88;2075087;69;20061;-75
2023/03/09 03:19:18;;;;;;;;;;;;;;;6.87;78.47;91036.50;2068762;69;20064;-76
2023/03/09 03:21:44;;;;;;;;;;;;;;;6.73;78.03;91021.09;2071735;69;20041;-76
2023/03/09 03:24:10;;;;;;;;;;;;;;;6.94;77.21;91017.91;2071749;69;20150;-75
2023/03/09 03:26:36;;;;;;;;;;;;;;;6.92;78.21;91023.41;2071573;69;20049;-75
2023/03/09 03:29:06;;;;;;;;;;;;;;;6.97;76.72;91002.69;2071669;69;20048;-77
2023/03/09 03:31:32;;;;;;;;;;;;;;;6.90;77.39;91000.94;2074846;69;20062;-73
2023/03/09 03:33:58;;;;;;;;;;;;;;;6.99;76.87;91022.34;2071455;69;20099;-74
2023/03/09 03:36:25;;;;;;;;;;;;;;;6.99;76.33;91002.75;2071948;69;20150;-75
2023/03/09 03:38:51;;;;;;;;;;;;;;;6.45;79.21;90995.31;2072123;69;20060;-75
2023/03/09 03:41:17;;;;;;;;;;;;;;;6.44;79.92;90985.47;2072042;69;20151;-75
2023/03/09 03:43:46;;;;;;;;;;;;;;;6.47;80.24;90987.75;2069612;69;20048;-76
2023/03/09 03:46:13;;;;;;;;;;;;;;;6.65;79.23;90987.91;2072182;69;20079;-76
2023/03/09 03:48:39;;;;;;;;;;;;;;;6.79;77.64;90982.25;2069223;69;20476;-76
2023/03/09 03:51:05;;;;;;;;;;;;;;;6.86;76.78;90987.47;2069376;69;20079;-76
2023/03/09 03:53:31;;;;;;;;;;;;;;;6.82;77.33;91001.28;2069241;69;20053;-76
2023/03/09 03:55:57;;;;;;;;;;;;;;;6.54;79.39;91011.13;2071980;69;20048;-77
2023/03/09 03:58:23;;;;;;;;;;;;;;;6.60;79.83;91022.59;2072118;69;20052;-77
2023/03/09 04:00:49;;;;;;;;;;;;;;;6.74;78.20;91014.91;2069312;69;20044;-76
2023/03/09 04:03:17;;;;;;;;;;;;;;;6.67;77.42;90993.56;2071988;69;20048;-77
2023/03/09 04:05:45;;;;;;;;;;;;;;;6.74;77.07;91000.91;2071830;69;20080;-75
2023/03/09 04:08:11;;;;;;;;;;;;;;;6.50;78.03;91008.13;2072161;69;20151;-76
2023/03/09 04:10:38;;;;;;;;;;;;;;;6.67;77.50;91006.84;2072088;69;20175;-76
2023/03/09 04:13:03;;;;;;;;;;;;;;;6.72;77.12;91017.59;2072080;69;20514;-76
2023/03/09 04:15:29;;;;;;;;;;;;;;;6.71;77.23;91018.22;2072058;69;20044;-76
2023/03/09 04:17:54;;;;;;;;;;;;;;;6.79;76.72;91021.41;2071868;69;20139;-76
2023/03/09 04:20:20;;;;;;;;;;;;;;;6.84;76.72;91018.16;2072023;69;20076;-76
2023/03/09 04:22:50;;;;;;;;;;;;;;;6.71;77.72;91021.00;2071953;69;20053;-75
2023/03/09 04:25:17;;;;;;;;;;;;;;;6.35;79.99;91007.44;2071909;69;20049;-75
2023/03/09 04:27:43;;;;;;;;;;;;;;;6.49;79.30;91015.06;2071799;69;20047;-76
2023/03/09 04:30:22;;;;;;;;;;;;;;;6.49;78.98;91017.88;2072081;69;20071;-76
2023/03/09 04:32:51;;;;;;;;;;;;;;;6.63;77.65;91032.53;2071874;69;20148;-76
2023/03/09 04:35:17;;;;;;;;;;;;;;;6.64;77.75;91031.16;2071223;69;20155;-76
2023/03/09 04:37:44;;;;;;;;;;;;;;;6.70;76.45;91025.88;2071312;69;20055;-74
2023/03/09 04:40:11;;;;;;;;;;;;;;;6.70;77.17;91025.16;2070949;69;20152;-75
2023/03/09 04:42:36;;;;;;;;;;;;;;;6.71;77.15;91024.53;2071511;69;20443;-76
2023/03/09 04:45:03;;;;;;;;;;;;;;;6.46;77.55;91014.25;2069627;69;20506;-77
2023/03/09 04:47:28;;;;;;;;;;;;;;;6.53;77.24;90990.81;2068440;69;20219;-78
2023/03/09 04:49:54;;;;;;;;;;;;;;;6.23;80.60;90983.75;2068742;69;20068;-77
2023/03/09 04:52:19;;;;;;;;;;;;;;;6.18;81.19;90982.13;2068663;69;20069;-76
2023/03/09 04:54:46;;;;;;;;;;;;;;;6.52;78.51;90977.47;2065278;69;20049;-76
2023/03/09 04:57:12;;;;;;;;;;;;;;;6.30;78.81;90997.41;2067947;69;20080;-78
2023/03/09 04:59:37;;;;;;;;;;;;;;;6.25;81.03;90992.97;2067946;69;20105;-78
2023/03/09 05:02:03;;;;;;;;;;;;;;;6.49;79.81;90981.53;2067937;69;20515;-77
2023/03/09 05:04:37;;;;;;;;;;;;;;;6.59;77.90;90970.81;2068023;69;20057;-76
2023/03/09 05:07:02;;;;;;;;;;;;;;;6.59;78.60;90963.16;2068036;69;20053;-76
2023/03/09 05:09:28;;;;;;;;;;;;;;;6.62;78.27;90983.56;2065199;69;20044;-76
2023/03/09 05:11:54;;;;;;;;;;;;;;;6.47;78.96;90984.22;2067951;69;20107;-75
2023/03/09 05:14:21;;;;;;;;;;;;;;;6.34;78.90;90986.44;2068468;69;20561;-76
2023/03/09 05:16:51;;;;;;;;;;;;;;;6.05;80.59;90989.19;2067946;69;20122;-76
2023/03/09 05:19:18;;;;;;;;;;;;;;;6.36;80.01;90980.94;2065200;69;20115;-76
2023/03/09 05:21:43;;;;;;;;;;;;;;;6.47;79.32;90982.16;2067994;69;20242;-77
2023/03/09 05:24:12;;;;;;;;;;;;;;;6.56;78.87;90986.78;2067992;69;20060;-77
2023/03/09 05:26:37;;;;;;;;;;;;;;;6.70;78.20;90986.00;2068487;69;20061;-76
2023/03/09 05:29:04;;;;;;;;;;;;;;;6.74;77.77;91006.50;2067968;69;20084;-75
2023/03/09 05:31:33;;;;;;;;;;;;;;;6.78;77.66;91014.34;2067671;69;20170;-77
2023/03/09 05:33:58;;;;;;;;;;;;;;;6.39;80.24;91017.38;2068391;69;20041;-76
2023/03/09 05:36:25;;;;;;;;;;;;;;;6.50;79.32;91006.03;2052669;69;20055;-76
2023/03/09 05:38:52;;;;;;;;;;;;;;;6.63;78.11;91015.75;2048454;70;20120;-75
2023/03/09 05:41:20;;;;;;;;;;;;;;;6.65;77.34;90999.09;2047728;70;20101;-75
2023/03/09 05:43:49;;;;;;;;;;;;;;;6.76;77.65;90989.81;2048348;70;20067;-76
2023/03/09 05:46:16;;;;;;;;;;;;;;;6.82;77.08;91006.88;2048028;69;20059;-76
2023/03/09 05:48:42;;;;;;;;;;;;;;;6.77;77.78;91010.81;2048769;70;20058;-77
2023/03/09 05:51:08;;;;;;;;;;;;;;;6.47;79.23;91024.09;2048989;70;20054;-76
2023/03/09 05:53:35;;;;;;;;;;;;;;;6.65;78.49;91037.50;2048381;70;20487;-75
2023/03/09 05:56:01;;;;;;;;;;;;;;;6.71;77.71;91046.19;2048261;70;20067;-76
2023/03/09 05:58:28;;;;;;;;;;;;;;;6.77;77.72;91052.06;2048046;70;20087;-76
2023/03/09 06:00:54;;;;;;;;;;;;;;;6.67;77.82;91052.28;2048282;70;20553;-76
2023/03/09 06:03:20;;;;;;;;;;;;;;;6.65;77.62;91057.09;2048147;70;20449;-76
2023/03/09 06:05:58;;;;;;;;;;;;;;;6.76;78.20;91056.22;2048171;70;20070;-76
2023/03/09 06:08:23;;;;;;;;;;;;;;;6.83;78.54;91039.09;2048317;70;20171;-75
2023/03/09 06:10:53;;;;;;;;;;;;;;;6.65;78.43;91049.41;2048210;70;20059;-74
2023/03/09 06:13:20;;;;;;;;;;;;;;;6.82;78.03;91050.91;2048927;70;20124;-76
2023/03/09 06:15:46;;;;;;;;;;;;;;;6.84;78.17;91056.59;2048517;69;20082;-76
2023/03/09 06:18:12;;;;;;;;;;;;;;;6.48;78.82;91069.53;2048028;70;20054;-75
2023/03/09 06:20:38;;;;;;;;;;;;;;;6.66;79.47;91070.44;2048244;70;20425;-76
2023/03/09 06:23:03;;;;;;;;;;;;;;;6.77;79.32;91071.63;2050472;69;20062;-76
2023/03/09 06:25:29;;;;;;;;;;;;;;;6.43;79.31;91090.97;2071023;69;20139;-76
2023/03/09 06:27:55;;;;;;;;;;;;;;;6.15;81.11;91121.00;2068300;69;20053;-76
2023/03/09 06:30:22;;;;;;;;;;;;;;;5.92;81.89;91135.16;2071096;69;20049;-75
2023/03/09 06:32:48;;;;;;;;;;;;;;;6.20;81.42;91164.56;2070953;69;20148;-77
2023/03/09 06:35:14;;;;;;;;;;;;;;;6.53;80.49;91166.94;2070932;69;20144;-74
2023/03/09 06:37:40;;;;;;;;;;;;;;;6.77;78.93;91175.09;2071057;69;20163;-75
2023/03/09 06:40:07;;;;;;;;;;;;;;;6.94;77.87;91190.63;2071065;69;20111;-76
2023/03/09 06:42:33;;;;;;;;;;;;;;;7.08;77.66;91196.91;2071632;69;20074;-75
2023/03/09 06:44:58;;;;;;;;;;;;;;;6.94;78.79;91199.75;2068341;69;20146;-76
2023/03/09 06:47:28;;;;;;;;;;;;;;;7.00;77.58;91211.22;2071588;69;20084;-75
2023/03/09 06:50:02;;;;;;;;;;;;;;;7.13;77.53;91210.47;2068575;69;20071;-75
2023/03/09 06:52:29;;;;;;;;;;;;;;;7.23;77.90;91232.63;2068281;69;20129;-76
2023/03/09 06:54:55;;;;;;;;;;;;;;;7.29;77.30;91246.22;2071209;69;20044;-76
2023/03/09 06:57:21;;;;;;;;;;;;;;;7.18;77.56;91272.97;2070969;69;20253;-76
2023/03/09 06:59:46;;;;;;;;;;;;;;;7.15;77.65;91291.03;2071802;69;20135;-76
2023/03/09 07:02:13;;;;;;;;;;;;;;;7.14;77.24;91312.66;2071031;69;20087;-75
2023/03/09 07:04:39;;;;;;;;;;;;;;;7.23;76.39;91322.22;2071118;69;20053;-75
2023/03/09 07:07:05;;;;;;;;;;;;;;;6.48;80.92;91330.22;2071070;69;20056;-76
2023/03/09 07:09:31;;;;;;;;;;;;;;;6.72;81.04;91344.78;2072105;69;20048;-75
2023/03/09 07:11:57;;;;;;;;;;;;;;;7.00;80.11;91351.13;2072261;69;20419;-75
2023/03/09 07:14:23;;;;;;;;;;;;;;;7.08;79.22;91353.63;2072147;69;20117;-74
2023/03/09 07:16:54;;;;;;;;;;;;;;;7.11;78.78;91344.00;2072080;69;20106;-75
2023/03/09 07:19:20;;;;;;;;;;;;;;;6.99;80.19;91332.16;2072003;69;20044;-74
2023/03/09 07:21:45;;;;;;;;;;;;;;;7.22;79.08;91334.03;2071465;69;20138;-74
2023/03/09 07:24:11;;;;;;;;;;;;;;;7.28;79.42;91326.66;2071601;69;20080;-76
2023/03/09 07:26:36;;;;;;;;;;;;;;;7.31;79.35;91324.69;2071767;69;20064;-75
2023/03/09 07:29:02;;;;;;;;;;;;;;;7.56;78.43;91335.03;2071618;69;20045;-76
2023/03/09 07:31:29;;;;;;;;;;;;;;;7.69;78.69;91330.75;2071745;69;20064;-77
2023/03/09 07:33:57;;;;;;;;;;;;;;;7.76;78.67;91341.66;2072164;69;20140;-74
2023/03/09 07:36:23;;;;;;;;;;;;;;;7.69;79.41;91337.06;2074703;69;20048;-75
2023/03/09 07:38:50;;;;;;;;;;;;;;;7.24;80.29;91346.06;2075494;69;20146;-75
2023/03/09 07:41:15;;;;;;;;;;;;;;;7.57;80.06;91375.69;2069345;69;20049;-74
2023/03/09 07:43:43;;;;;;;;;;;;;;;7.37;78.68;91392.19;2075430;69;20047;-73
2023/03/09 07:46:17;;;;;;;;;;;;;;;7.60;78.97;91391.25;2072125;69;20076;-74
2023/03/09 07:48:43;;;;;;;;;;;;;;;6.94;80.18;91394.84;2071953;69;20147;-74
2023/03/09 07:51:09;;;;;;;;;;;;;;;6.86;83.32;91414.72;2075462;69;20048;-74
2023/03/09 07:53:35;;;;;;;;;;;;;;;6.87;84.47;91430.16;2075399;69;20051;-74
2023/03/09 07:56:03;;;;;;;;;;;;;;;7.37;82.50;91414.56;2075445;69;20130;-74
2023/03/09 07:58:29;;;;;;;;;;;;;;;7.72;80.15;91414.28;2075430;69;20095;-76
2023/03/09 08:00:55;;;;;;;;;;;;;;;7.70;80.02;91410.63;2072138;69;20144;-75
2023/03/09 08:03:20;;;;;;;;;;;;;;;7.61;80.23;91404.63;2075366;69;20071;-74
2023/03/09 08:05:47;;;;;;;;;;;;;;;7.89;79.84;91413.72;2075573;69;20055;-75
2023/03/09 08:08:12;;;;;;;;;;;;;;;7.59;81.54;91423.41;2075505;69;20045;-74
2023/03/09 08:10:39;;;;;;;;;;;;;;;7.90;80.44;91431.28;2075329;69;20415;-75
2023/03/09 08:13:05;;;;;;;;;;;;;;;8.12;79.31;91445.66;2075497;69;20139;-75
2023/03/09 08:15:30;;;;;;;;;;;;;;;8.21;77.52;91441.91;2075306;69;20222;-75
2023/03/09 08:17:56;;;;;;;;;;;;;;;8.14;76.38;91434.53;2071942;69;20083;-74
2023/03/09 08:20:21;;;;;;;;;;;;;;;7.76;78.33;91442.50;2075059;69;20481;-74
2023/03/09 08:22:47;;;;;;;;;;;;;;;7.91;77.96;91457.94;2075262;69;20530;-74
2023/03/09 08:25:15;;;;;;;;;;;;;;;8.18;77.46;91451.56;2071949;69;20147;-76
2023/03/09 08:27:42;;;;;;;;;;;;;;;8.22;79.92;91457.38;2075285;69;20060;-76
2023/03/09 08:30:08;;;;;;;;;;;;;;;8.58;78.23;91468.94;2071978;69;20477;-75
2023/03/09 08:32:34;;;;;;;;;;;;;;;8.70;77.32;91472.31;2075153;69;20124;-77
2023/03/09 08:34:59;;;;;;;;;;;;;;;8.96;75.55;91472.13;2075112;69;20064;-77
2023/03/09 08:37:25;;;;;;;;;;;;;;;9.08;75.73;91467.09;2075239;69;20044;-76
2023/03/09 08:39:51;;;;;;;;;;;;;;;9.13;76.74;91457.50;2075376;69;20110;-76
2023/03/09 08:42:17;;;;;;;;;;;;;;;9.10;75.05;91461.56;2075244;69;20131;-76
2023/03/09 08:44:42;;;;;;;;;;;;;;;8.78;77.80;91463.56;2075205;69;20143;-75
2023/03/09 08:47:08;;;;;;;;;;;;;;;9.04;76.60;91464.09;2069082;69;20504;-74
2023/03/09 08:49:34;;;;;;;;;;;;;;;9.35;74.58;91458.50;2075284;69;20052;-75
2023/03/09 08:51:59;;;;;;;;;;;;;;;9.78;75.67;91468.09;2075353;69;20091;-75
2023/03/09 08:54:25;;;;;;;;;;;;;;;10.03;74.51;91472.69;2072028;69;20076;-76
2023/03/09 08:56:51;;;;;;;;;;;;;;;10.33;74.56;91476.81;2075361;69;20080;-75
2023/03/09 08:59:16;;;;;;;;;;;;;;;10.49;72.25;91481.66;2075346;69;20456;-74
2023/03/09 09:01:42;;;;;;;;;;;;;;;10.65;70.48;91485.16;2075266;69;20064;-74
2023/03/09 09:04:08;;;;;;;;;;;;;;;10.88;71.22;91479.06;2071707;69;20484;-75
2023/03/09 09:06:33;;;;;;;;;;;;;;;10.82;70.99;91481.66;2075231;69;20434;-76
2023/03/09 09:08:59;;;;;;;;;;;;;;;11.19;67.85;91475.34;2075201;69;20044;-76
2023/03/09 09:11:24;;;;;;;;;;;;;;;11.23;67.48;91471.97;2075194;69;20577;-76
2023/03/09 09:13:51;;;;;;;;;;;;;;;10.62;71.49;91467.47;2075386;69;20064;-76
2023/03/09 09:16:17;;;;;;;;;;;;;;;11.48;69.79;91478.53;2075194;69;20503;-75
2023/03/09 09:18:43;;;;;;;;;;;;;;;11.01;69.68;91473.91;2075161;69;20064;-76
2023/03/09 09:21:11;;;;;;;;;;;;;;;11.67;69.46;91498.28;2071791;69;20104;-76
2023/03/09 09:23:38;;;;;;;;;;;;;;;12.15;66.19;91509.22;2075304;69;20053;-76
2023/03/09 09:26:04;;;;;;;;;;;;;;;11.74;66.26;91507.72;2075222;69;20044;-76
2023/03/09 09:28:30;;;;;;;;;;;;;;;11.73;64.77;91520.38;2075274;69;20222;-77
2023/03/09 09:30:57;;;;;;;;;;;;;;;11.53;64.95;91531.59;2072103;69;20056;-78
2023/03/09 09:33:22;;;;;;;;;;;;;;;11.97;64.48;91523.38;2075352;69;20202;-79
2023/03/09 09:36:02;;;;;;;;;;;;;;;12.74;64.15;91519.75;2075461;69;20135;-76
2023/03/09 09:38:28;;;;;;;;;;;;;;;13.79;64.02;91507.56;2075054;69;20048;-78
2023/03/09 09:40:55;;;;;;;;;;;;;;;13.90;59.79;91500.09;2074984;69;20180;-75
2023/03/09 09:43:22;;;;;;;;;;;;;;;13.57;60.11;91504.78;2071621;69;20072;-76
2023/03/09 09:45:48;;;;;;;;;;;;;;;13.08;59.90;91508.88;2068693;69;20058;-77
2023/03/09 09:48:15;;;;;;;;;;;;;;;13.47;58.72;91496.00;2074795;69;20059;-78
2023/03/09 09:50:49;;;;;;;;;;;;;;;12.64;60.51;91499.63;2074986;69;20082;-78
2023/03/09 09:53:26;;;;;;;;;;;;;;;14.05;62.31;91501.94;2074997;69;20060;-77
2023/03/09 09:55:53;;;;;;;;;;;;;;;13.94;55.78;91500.22;2075003;69;20125;-77
2023/03/09 09:58:32;;;;;;;;;;;;;;;14.24;55.91;91503.19;2074970;69;20048;-76
2023/03/09 10:01:01;;;;;;;;;;;;;;;14.82;54.51;91500.53;2075079;69;20194;-79
2023/03/09 10:03:35;;;;;;;;;;;;;;;15.73;54.11;91507.00;2074888;69;20136;-76
2023/03/09 10:06:06;;;;;;;;;;;;;;;16.60;52.17;91507.41;2075194;69;20056;-80
2023/03/09 10:08:43;;;;;;;;;;;;;;;15.28;53.12;91508.75;2075256;69;20092;-76
2023/03/09 10:11:09;;;;;;;;;;;;;;;16.12;51.00;91517.09;2075146;69;20052;-76
2023/03/09 10:13:38;;;;;;;;;;;;;;;15.18;53.33;91512.06;2075204;69;20486;-75
2023/03/09 10:16:07;;;;;;;;;;;;;;;15.54;52.84;91500.19;2075203;69;20055;-76
2023/03/09 10:18:35;;;;;;;;;;;;;;;14.74;54.18;91508.81;2075087;69;20048;-75
2023/03/09 10:21:01;;;;;;;;;;;;;;;15.21;51.44;91505.06;2075215;69;20133;-79
2023/03/09 10:23:31;;;;;;;;;;;;;;;16.32;50.75;91507.56;2072024;69;20060;-74
2023/03/09 10:25:59;;;;;;;;;;;;;;;15.59;48.29;91507.38;2076249;69;20146;-75
2023/03/09 10:28:28;;;;;;;;;;;;;;;17.69;47.43;91511.50;2073503;69;20446;-75
2023/03/09 10:31:11;;;;;;;;;;;;;;;18.41;44.55;91515.38;2075161;69;20041;-75
2023/03/09 10:33:36;;;;;;;;;;;;;;;19.44;42.98;91513.00;2074965;69;20056;-76
2023/03/09 10:36:01;;;;;;;;;;;;;;;18.88;44.57;91507.44;2075036;69;20080;-76
2023/03/09 10:38:27;;;;;;;;;;;;;;;17.90;44.14;91506.84;2074973;69;20048;-76
2023/03/09 10:40:54;;;;;;;;;;;;;;;18.36;42.44;91508.91;2074990;69;20431;-74
2023/03/09 10:43:27;;;;;;;;;;;;;;;19.29;42.89;91502.88;2074950;69;20033;-74
2023/03/09 10:45:53;;;;;;;;;;;;;;;19.32;41.72;91497.88;2071726;69;20431;-75
2023/03/09 10:48:22;;;;;;;;;;;;;;;19.79;39.75;91496.16;2074908;69;20079;-77
2023/03/09 10:50:56;;;;;;;;;;;;;;;18.65;43.01;91498.59;2074976;69;20160;-79
2023/03/09 10:53:34;;;;;;;;;;;;;;;21.45;40.47;91492.69;2075013;69;20048;-76
2023/03/09 10:56:18;;;;;;;;;;;;;;;22.53;35.94;91495.50;2074942;69;20048;-77
2023/03/09 10:58:44;;;;;;;;;;;;;;;22.37;37.09;91501.28;2074943;69;20052;-74
2023/03/09 11:01:12;;;;;;;;;;;;;;;23.68;35.14;91497.88;2074948;69;20055;-73
2023/03/09 11:03:39;;;;;;;;;;;;;;;24.92;32.89;91507.53;2074771;69;20048;-74
2023/03/09 11:06:08;;;;;;;;;;;;;;;26.58;31.01;91510.28;2074922;69;20044;-74
2023/03/09 11:08:33;;;;;;;;;;;;;;;26.04;30.52;91521.22;2074973;69;20056;-74
2023/03/09 11:11:04;;;;;;;;;;;;;;;25.60;31.48;91502.38;2071611;69;20051;-75
2023/03/09 11:13:29;;;;;;;;;;;;;;;27.56;28.34;91513.44;2071708;69;20045;-76
2023/03/09 11:16:04;;;;;;;;;;;;;;;28.42;28.38;91523.13;2074995;69;20050;-75
2023/03/09 11:18:30;;;;;;;;;;;;;;;26.73;27.65;91516.50;2071466;69;20522;-75
2023/03/09 11:20:55;;;;;;;;;;;;;;;28.82;26.09;91510.53;2075033;69;20044;-77
2023/03/09 11:23:31;;;;;;;;;;;;;;;27.87;25.97;91510.63;2075131;69;20431;-77
2023/03/09 11:26:03;;;;;;;;;;;;;;;30.01;24.20;91513.72;2071666;69;20055;-74
2023/03/09 11:29:07;;;;;;;;;;;;;;;29.13;24.95;91516.22;2074946;69;20147;-75
2023/03/09 11:31:35;;;;;;;;;;;;;;;31.62;20.71;91508.38;2060750;69;20101;-77
2023/03/09 11:34:01;;;;;;;;;;;;;;;32.49;21.22;91505.84;2057800;69;20435;-76
2023/03/09 11:36:31;;;;;;;;;;;;;;;31.81;21.08;91513.50;2067380;69;20059;-76
2023/03/09 11:39:00;;;;;;;;;;;;;;;29.43;24.07;91513.25;2074858;69;20051;-76
2023/03/09 11:41:28;;;;;;;;;;;;;;;31.57;21.47;91512.22;2074721;69;20147;-77
2023/03/09 11:43:57;;;;;;;;;;;;;;;31.12;21.09;91499.97;2074708;69;20084;-77
2023/03/09 11:46:23;;;;;;;;;;;;;;;32.50;20.58;91495.59;2074868;69;20060;-77
2023/03/09 11:49:04;;;;;;;;;;;;;;;32.08;20.89;91493.56;2074541;69;20059;-77
2023/03/09 11:51:41;;;;;;;;;;;;;;;30.27;22.07;91476.66;2074774;69;20060;-77
2023/03/09 11:54:26;;;;;;;;;;;;;;;30.62;21.51;91470.44;2074930;69;20055;-77
2023/03/09 11:56:52;;;;;;;;;;;;;;;32.14;21.82;91486.78;2075195;69;20072;-77
2023/03/09 11:59:21;;;;;;;;;;;;;;;34.73;18.57;91489.38;2075419;69;20126;-76
2023/03/09 12:02:07;;;;;;;;;;;;;;;36.07;17.33;91491.28;2075442;69;20053;-76
2023/03/09 12:04:32;;;;;;;;;;;;;;;37.29;15.88;91491.78;2069450;69;20078;-76
2023/03/09 12:07:01;;;;;;;;;;;;;;;36.80;13.76;91488.75;2075283;69;20477;-76
2023/03/09 12:09:32;;;;;;;;;;;;;;;38.27;13.91;91486.56;2075301;69;20048;-76
2023/03/09 12:12:06;;;;;;;;;;;;;;;37.82;13.00;91488.63;2075365;69;20048;-76
2023/03/09 12:14:37;;;;;;;;;;;;;;;40.27;11.46;91499.13;2075379;69;20471;-76
2023/03/09 12:17:05;;;;;;;;;;;;;;;37.62;13.65;91508.19;2075423;69;20055;-75
2023/03/09 12:19:32;;;;;;;;;;;;;;;39.24;13.33;91508.31;2071868;69;20045;-75
2023/03/09 12:21:58;;;;;;;;;;;;;;;38.09;13.09;91497.25;2075354;69;20052;-74
2023/03/09 12:24:30;;;;;;;;;;;;;;;38.44;10.35;91494.38;2075539;69;20055;-75
2023/03/09 12:26:57;;;;;;;;;;;;;;;40.11;12.13;91495.09;2072198;69;20045;-75
2023/03/09 12:29:23;;;;;;;;;;;;;;;38.18;11.66;91509.19;2075395;69;20495;-76
2023/03/09 12:32:07;;;;;;;;;;;;;;;37.19;12.43;91501.19;2075362;69;20118;-75
2023/03/09 12:34:38;;;;;;;;;;;;;;;29.79;16.66;91482.50;2075286;69;20051;-75
2023/03/09 12:37:22;;;;;;;;;;;;;;;32.33;15.33;91486.78;2075263;69;20131;-75
2023/03/09 12:39:57;;;;;;;;;;;;;;;31.76;14.35;91478.03;2075330;69;20052;-75
2023/03/09 12:42:28;;;;;;;;;;;;;;;32.37;15.53;91472.09;2075436;69;20153;-77
2023/03/09 12:44:57;;;;;;;;;;;;;;;37.05;13.01;91485.81;2075338;69;20044;-75
2023/03/09 12:47:24;;;;;;;;;;;;;;;34.69;14.56;91487.38;2075249;69;20056;-75
2023/03/09 12:49:57;;;;;;;;;;;;;;;33.86;14.25;91489.03;2075367;69;20048;-75
2023/03/09 12:52:31;;;;;;;;;;;;;;;32.97;13.32;91476.91;2075372;69;20048;-76
2023/03/09 12:55:14;;;;;;;;;;;;;;;37.88;11.02;91491.22;2075324;69;20048;-75